METAR Data
IDs: Format: Raw Decoded Include TAF

Data at: 2314 UTC 29 May 2020

METAR for:KMPZ (Mount Pleasant Muni, IA, US)
Text:KMPZ 292255Z AUTO 33009G16KT 10SM CLR 20/10 A3012 RMK AO2
Temperature: 20.0°C ( 68°F)
Dewpoint: 10.0°C ( 50°F) [RH = 53%]
Pressure (altimeter):30.12 inches Hg (1020.1 mb)
Winds:from the NNW (330 degrees) at 10 MPH (9 knots; 4.6 m/s) gusting to 18 MPH (16 knots; 8.2 m/s)
Visibility:10 or more sm (16+ km)
Ceiling:at least 12,000 feet AGL
Clouds:sky clear below 12,000 feet AGL
QC Flag:automated observation with no human augmentation